AUA weather

Queen Beatrix International Airport
Oranjestad, Aruba

Public forecast

Using degrees Celsius for public forecast. Weather courtesy of forecast.io.

Current aviation weather report (METAR) for Queen Beatrix International Airport

Retrieved 2019/10/14 23:00 UTC (59 minutes ago):

TNCA 142300Z 07014KT 9999 FEW019 29/24 Q1010 NOSIG

Aviation forecast (TAF) for Queen Beatrix International Airport

Retrieved 2019/10/14 18:54 UTC (5 hours ago):

TAF TNCA 141800Z 1418/1518 08016KT 9999 SCT025 PROB40 TEMPO 1511/1517 5000 SHRA FEW012CB BKN014